sensor_id;sensor_type;location;lat;lon;timestamp;temperature;humidity
49503;DHT22;35409;48.776;9.204;2022-12-18T00:01:26;-9.90;99.90
49503;DHT22;35409;48.776;9.204;2022-12-18T00:03:53;-10.00;99.90
49503;DHT22;35409;48.776;9.204;2022-12-18T00:06:20;-10.00;99.90
49503;DHT22;35409;48.776;9.204;2022-12-18T00:08:47;-10.00;99.90
49503;DHT22;35409;48.776;9.204;2022-12-18T00:11:18;-10.10;99.90
49503;DHT22;35409;48.776;9.204;2022-12-18T00:13:45;-10.10;99.90
49503;DHT22;35409;48.776;9.204;2022-12-18T00:16:13;-10.10;99.90
49503;DHT22;35409;48.776;9.204;2022-12-18T00:18:40;-10.10;99.90
49503;DHT22;35409;48.776;9.204;2022-12-18T00:21:08;-10.00;99.90
49503;DHT22;35409;48.776;9.204;2022-12-18T00:23:35;-10.00;99.90
49503;DHT22;35409;48.776;9.204;2022-12-18T00:26:02;-10.00;99.90
49503;DHT22;35409;48.776;9.204;2022-12-18T00:28:29;-10.00;99.90
49503;DHT22;35409;48.776;9.204;2022-12-18T00:31:05;-10.10;99.90
49503;DHT22;35409;48.776;9.204;2022-12-18T00:33:31;-10.10;99.90
49503;DHT22;35409;48.776;9.204;2022-12-18T00:36:05;-10.10;99.90
49503;DHT22;35409;48.776;9.204;2022-12-18T00:38:31;-10.10;99.90
49503;DHT22;35409;48.776;9.204;2022-12-18T00:40:56;-10.10;99.90
49503;DHT22;35409;48.776;9.204;2022-12-18T00:43:22;-10.10;99.90
49503;DHT22;35409;48.776;9.204;2022-12-18T00:45:48;-10.10;99.90
49503;DHT22;35409;48.776;9.204;2022-12-18T00:48:14;-10.10;99.90
49503;DHT22;35409;48.776;9.204;2022-12-18T00:50:39;-10.10;99.90
49503;DHT22;35409;48.776;9.204;2022-12-18T00:53:05;-10.10;99.90
49503;DHT22;35409;48.776;9.204;2022-12-18T00:55:30;-10.20;99.90
49503;DHT22;35409;48.776;9.204;2022-12-18T00:57:56;-10.20;99.90
49503;DHT22;35409;48.776;9.204;2022-12-18T01:00:22;-10.20;99.90
49503;DHT22;35409;48.776;9.204;2022-12-18T01:02:48;-10.10;99.90
49503;DHT22;35409;48.776;9.204;2022-12-18T01:05:14;-10.10;99.90
49503;DHT22;35409;48.776;9.204;2022-12-18T01:07:39;-10.10;99.90
49503;DHT22;35409;48.776;9.204;2022-12-18T01:10:06;-10.00;99.90
49503;DHT22;35409;48.776;9.204;2022-12-18T01:12:33;-10.00;99.90
49503;DHT22;35409;48.776;9.204;2022-12-18T01:14:58;-9.90;99.90
49503;DHT22;35409;48.776;9.204;2022-12-18T01:17:24;-9.80;99.90
49503;DHT22;35409;48.776;9.204;2022-12-18T01:19:50;-9.70;99.90
49503;DHT22;35409;48.776;9.204;2022-12-18T01:22:15;-9.60;99.90
49503;DHT22;35409;48.776;9.204;2022-12-18T01:24:41;-9.50;99.90
49503;DHT22;35409;48.776;9.204;2022-12-18T01:27:06;-9.40;99.90
49503;DHT22;35409;48.776;9.204;2022-12-18T01:29:32;-9.30;99.90
49503;DHT22;35409;48.776;9.204;2022-12-18T01:31:58;-9.30;99.90
49503;DHT22;35409;48.776;9.204;2022-12-18T01:34:23;-9.20;99.90
49503;DHT22;35409;48.776;9.204;2022-12-18T01:36:49;-9.20;99.90
49503;DHT22;35409;48.776;9.204;2022-12-18T01:39:18;-9.10;99.90
49503;DHT22;35409;48.776;9.204;2022-12-18T01:41:44;-9.10;99.90
49503;DHT22;35409;48.776;9.204;2022-12-18T01:47:20;-8.90;99.90
49503;DHT22;35409;48.776;9.204;2022-12-18T01:49:47;-8.80;99.90
49503;DHT22;35409;48.776;9.204;2022-12-18T01:52:13;-8.70;99.90
49503;DHT22;35409;48.776;9.204;2022-12-18T01:54:39;-8.70;99.90
49503;DHT22;35409;48.776;9.204;2022-12-18T01:57:05;-8.70;99.90
49503;DHT22;35409;48.776;9.204;2022-12-18T01:59:31;-8.70;99.90
49503;DHT22;35409;48.776;9.204;2022-12-18T02:01:58;-8.80;99.90
49503;DHT22;35409;48.776;9.204;2022-12-18T02:04:25;-8.90;99.90
49503;DHT22;35409;48.776;9.204;2022-12-18T02:07:03;-8.90;99.90
49503;DHT22;35409;48.776;9.204;2022-12-18T02:09:59;-9.00;99.90
49503;DHT22;35409;48.776;9.204;2022-12-18T02:12:31;-9.00;99.90
49503;DHT22;35409;48.776;9.204;2022-12-18T02:15:12;-8.90;99.90
49503;DHT22;35409;48.776;9.204;2022-12-18T02:18:07;-8.80;99.90
49503;DHT22;35409;48.776;9.204;2022-12-18T02:20:36;-8.70;99.90
49503;DHT22;35409;48.776;9.204;2022-12-18T02:23:11;-8.70;99.90
49503;DHT22;35409;48.776;9.204;2022-12-18T02:26:18;-8.60;99.90
49503;DHT22;35409;48.776;9.204;2022-12-18T02:28:51;-8.60;99.90
49503;DHT22;35409;48.776;9.204;2022-12-18T02:31:21;-8.70;99.90
49503;DHT22;35409;48.776;9.204;2022-12-18T02:33:50;-8.70;99.90
49503;DHT22;35409;48.776;9.204;2022-12-18T02:36:18;-8.70;99.90
49503;DHT22;35409;48.776;9.204;2022-12-18T02:38:46;-8.70;99.90
49503;DHT22;35409;48.776;9.204;2022-12-18T02:41:14;-8.70;99.90
49503;DHT22;35409;48.776;9.204;2022-12-18T02:43:46;-8.70;99.90
49503;DHT22;35409;48.776;9.204;2022-12-18T02:46:33;-8.80;99.90
49503;DHT22;35409;48.776;9.204;2022-12-18T02:49:12;-9.00;99.90
49503;DHT22;35409;48.776;9.204;2022-12-18T02:51:56;-9.00;99.90
49503;DHT22;35409;48.776;9.204;2022-12-18T03:00:43;-9.20;99.90
49503;DHT22;35409;48.776;9.204;2022-12-18T03:03:26;-9.30;99.90
49503;DHT22;35409;48.776;9.204;2022-12-18T03:06:04;-9.20;99.90
49503;DHT22;35409;48.776;9.204;2022-12-18T03:08:38;-9.10;99.90
49503;DHT22;35409;48.776;9.204;2022-12-18T03:11:12;-9.10;99.90
49503;DHT22;35409;48.776;9.204;2022-12-18T03:14:07;-8.90;99.90
49503;DHT22;35409;48.776;9.204;2022-12-18T03:16:35;-8.90;99.90
49503;DHT22;35409;48.776;9.204;2022-12-18T03:19:06;-9.00;99.90
49503;DHT22;35409;48.776;9.204;2022-12-18T03:21:54;-9.10;99.90
49503;DHT22;35409;48.776;9.204;2022-12-18T03:24:21;-9.20;99.90
49503;DHT22;35409;48.776;9.204;2022-12-18T03:26:52;-9.30;99.90
49503;DHT22;35409;48.776;9.204;2022-12-18T03:29:24;-9.30;99.90
49503;DHT22;35409;48.776;9.204;2022-12-18T03:31:56;-9.40;99.90
49503;DHT22;35409;48.776;9.204;2022-12-18T03:34:29;-9.50;99.90
49503;DHT22;35409;48.776;9.204;2022-12-18T03:36:56;-9.50;99.90
49503;DHT22;35409;48.776;9.204;2022-12-18T03:39:21;-9.50;99.90
49503;DHT22;35409;48.776;9.204;2022-12-18T03:47:33;-9.30;99.90
49503;DHT22;35409;48.776;9.204;2022-12-18T03:50:27;-9.20;99.90
49503;DHT22;35409;48.776;9.204;2022-12-18T03:53:14;-9.10;99.90
49503;DHT22;35409;48.776;9.204;2022-12-18T03:55:43;-9.10;99.90
49503;DHT22;35409;48.776;9.204;2022-12-18T03:58:11;-9.10;99.90
49503;DHT22;35409;48.776;9.204;2022-12-18T04:00:39;-9.10;99.90
49503;DHT22;35409;48.776;9.204;2022-12-18T04:03:05;-9.10;99.90
49503;DHT22;35409;48.776;9.204;2022-12-18T04:05:33;-9.10;99.90
49503;DHT22;35409;48.776;9.204;2022-12-18T04:08:00;-9.10;99.90
49503;DHT22;35409;48.776;9.204;2022-12-18T04:10:26;-9.10;99.90
49503;DHT22;35409;48.776;9.204;2022-12-18T04:12:55;-9.10;99.90
49503;DHT22;35409;48.776;9.204;2022-12-18T04:15:21;-9.10;99.90
49503;DHT22;35409;48.776;9.204;2022-12-18T04:17:48;-9.10;99.90
49503;DHT22;35409;48.776;9.204;2022-12-18T04:20:14;-9.10;99.90
49503;DHT22;35409;48.776;9.204;2022-12-18T04:22:39;-9.10;99.90
49503;DHT22;35409;48.776;9.204;2022-12-18T04:25:05;-9.10;99.90
49503;DHT22;35409;48.776;9.204;2022-12-18T04:27:31;-9.10;99.90
49503;DHT22;35409;48.776;9.204;2022-12-18T04:29:56;-9.00;99.90
49503;DHT22;35409;48.776;9.204;2022-12-18T04:32:22;-9.00;99.90
49503;DHT22;35409;48.776;9.204;2022-12-18T04:34:47;-9.10;99.90
49503;DHT22;35409;48.776;9.204;2022-12-18T04:37:13;-9.10;99.90
49503;DHT22;35409;48.776;9.204;2022-12-18T04:39:39;-9.20;99.90
49503;DHT22;35409;48.776;9.204;2022-12-18T04:42:05;-9.30;99.90
49503;DHT22;35409;48.776;9.204;2022-12-18T04:44:30;-9.40;99.90
49503;DHT22;35409;48.776;9.204;2022-12-18T04:46:56;-9.40;99.90
49503;DHT22;35409;48.776;9.204;2022-12-18T04:49:22;-9.40;99.90
49503;DHT22;35409;48.776;9.204;2022-12-18T04:51:47;-9.40;99.90
49503;DHT22;35409;48.776;9.204;2022-12-18T04:54:13;-9.50;99.90
49503;DHT22;35409;48.776;9.204;2022-12-18T04:56:38;-9.50;99.90
49503;DHT22;35409;48.776;9.204;2022-12-18T04:59:05;-9.60;99.90
49503;DHT22;35409;48.776;9.204;2022-12-18T05:01:30;-9.70;99.90
49503;DHT22;35409;48.776;9.204;2022-12-18T05:03:56;-9.70;99.90
49503;DHT22;35409;48.776;9.204;2022-12-18T05:06:21;-9.70;99.90
49503;DHT22;35409;48.776;9.204;2022-12-18T05:08:47;-9.60;99.90
49503;DHT22;35409;48.776;9.204;2022-12-18T05:11:14;-9.70;99.90
49503;DHT22;35409;48.776;9.204;2022-12-18T05:13:44;-9.70;99.90
49503;DHT22;35409;48.776;9.204;2022-12-18T05:16:10;-9.70;99.90
49503;DHT22;35409;48.776;9.204;2022-12-18T05:18:36;-9.80;99.90
49503;DHT22;35409;48.776;9.204;2022-12-18T05:21:02;-9.90;99.90
49503;DHT22;35409;48.776;9.204;2022-12-18T05:23:28;-9.90;99.90
49503;DHT22;35409;48.776;9.204;2022-12-18T05:25:56;-10.00;99.90
49503;DHT22;35409;48.776;9.204;2022-12-18T05:28:22;-10.10;99.90
49503;DHT22;35409;48.776;9.204;2022-12-18T05:30:50;-10.10;99.90
49503;DHT22;35409;48.776;9.204;2022-12-18T05:33:16;-10.10;99.90
49503;DHT22;35409;48.776;9.204;2022-12-18T05:35:42;-10.20;99.90
49503;DHT22;35409;48.776;9.204;2022-12-18T08:53:45;-8.30;99.90
49503;DHT22;35409;48.776;9.204;2022-12-18T08:56:12;-8.30;99.90
49503;DHT22;35409;48.776;9.204;2022-12-18T08:58:38;-8.20;99.90
49503;DHT22;35409;48.776;9.204;2022-12-18T09:01:08;-8.10;99.90
49503;DHT22;35409;48.776;9.204;2022-12-18T09:03:37;-8.00;99.90
49503;DHT22;35409;48.776;9.204;2022-12-18T09:06:03;-7.90;99.90
49503;DHT22;35409;48.776;9.204;2022-12-18T09:08:29;-7.90;99.90
49503;DHT22;35409;48.776;9.204;2022-12-18T09:10:55;-7.80;99.90
49503;DHT22;35409;48.776;9.204;2022-12-18T09:13:22;-7.70;99.90
49503;DHT22;35409;48.776;9.204;2022-12-18T09:15:49;-7.50;99.90
49503;DHT22;35409;48.776;9.204;2022-12-18T09:18:17;-7.40;99.90
49503;DHT22;35409;48.776;9.204;2022-12-18T09:20:44;-7.20;99.90
49503;DHT22;35409;48.776;9.204;2022-12-18T09:23:11;-7.10;99.90
49503;DHT22;35409;48.776;9.204;2022-12-18T09:25:37;-7.00;99.90
49503;DHT22;35409;48.776;9.204;2022-12-18T09:28:10;-6.90;99.90
49503;DHT22;35409;48.776;9.204;2022-12-18T09:30:41;-6.80;99.90
49503;DHT22;35409;48.776;9.204;2022-12-18T09:33:06;-6.80;99.90
49503;DHT22;35409;48.776;9.204;2022-12-18T09:35:32;-6.70;99.90
49503;DHT22;35409;48.776;9.204;2022-12-18T09:37:58;-6.70;99.90
49503;DHT22;35409;48.776;9.204;2022-12-18T09:40:26;-6.60;99.90
49503;DHT22;35409;48.776;9.204;2022-12-18T09:43:00;-6.50;99.90
49503;DHT22;35409;48.776;9.204;2022-12-18T09:45:29;-6.40;99.90
49503;DHT22;35409;48.776;9.204;2022-12-18T09:47:56;-6.40;99.90
49503;DHT22;35409;48.776;9.204;2022-12-18T09:50:38;-6.40;99.90
49503;DHT22;35409;48.776;9.204;2022-12-18T09:53:08;-6.40;99.90
49503;DHT22;35409;48.776;9.204;2022-12-18T09:55:38;-6.40;99.90
49503;DHT22;35409;48.776;9.204;2022-12-18T09:58:12;-6.40;99.90
49503;DHT22;35409;48.776;9.204;2022-12-18T10:00:39;-6.40;99.90
49503;DHT22;35409;48.776;9.204;2022-12-18T10:03:13;-6.40;99.90
49503;DHT22;35409;48.776;9.204;2022-12-18T10:13:57;-6.20;99.90
49503;DHT22;35409;48.776;9.204;2022-12-18T10:27:21;-5.70;99.90
49503;DHT22;35409;48.776;9.204;2022-12-18T10:29:47;-5.60;99.90
49503;DHT22;35409;48.776;9.204;2022-12-18T10:32:23;-5.40;99.90
49503;DHT22;35409;48.776;9.204;2022-12-18T10:34:54;-5.50;99.90
49503;DHT22;35409;48.776;9.204;2022-12-18T10:37:26;-5.30;99.90
49503;DHT22;35409;48.776;9.204;2022-12-18T10:40:15;-5.10;99.90
49503;DHT22;35409;48.776;9.204;2022-12-18T10:47:52;-4.50;99.90
49503;DHT22;35409;48.776;9.204;2022-12-18T10:50:29;-4.50;99.90
49503;DHT22;35409;48.776;9.204;2022-12-18T10:53:04;-4.30;99.90
49503;DHT22;35409;48.776;9.204;2022-12-18T10:55:33;-4.40;99.90
49503;DHT22;35409;48.776;9.204;2022-12-18T10:58:21;-4.20;99.90
49503;DHT22;35409;48.776;9.204;2022-12-18T11:03:41;-4.00;99.90
49503;DHT22;35409;48.776;9.204;2022-12-18T11:06:12;-4.00;99.90
49503;DHT22;35409;48.776;9.204;2022-12-18T11:08:40;-3.80;99.90
49503;DHT22;35409;48.776;9.204;2022-12-18T11:11:20;-3.70;99.90
49503;DHT22;35409;48.776;9.204;2022-12-18T11:14:02;-3.60;99.90
49503;DHT22;35409;48.776;9.204;2022-12-18T11:16:31;-3.50;99.90
49503;DHT22;35409;48.776;9.204;2022-12-18T11:21:56;-3.20;99.90
49503;DHT22;35409;48.776;9.204;2022-12-18T11:26:59;-2.90;99.90
49503;DHT22;35409;48.776;9.204;2022-12-18T11:29:28;-2.90;99.90
49503;DHT22;35409;48.776;9.204;2022-12-18T11:32:33;-2.80;99.90
49503;DHT22;35409;48.776;9.204;2022-12-18T11:35:21;-2.80;99.90
49503;DHT22;35409;48.776;9.204;2022-12-18T11:37:59;-2.70;99.90
49503;DHT22;35409;48.776;9.204;2022-12-18T11:40:36;-2.60;99.90
49503;DHT22;35409;48.776;9.204;2022-12-18T11:43:25;-2.50;99.90
49503;DHT22;35409;48.776;9.204;2022-12-18T11:46:19;-2.50;99.90
49503;DHT22;35409;48.776;9.204;2022-12-18T11:48:54;-2.40;99.90
49503;DHT22;35409;48.776;9.204;2022-12-18T11:51:35;-2.40;99.90
49503;DHT22;35409;48.776;9.204;2022-12-18T11:54:14;-2.30;99.90
49503;DHT22;35409;48.776;9.204;2022-12-18T12:41:40;-1.30;99.90
49503;DHT22;35409;48.776;9.204;2022-12-18T12:44:29;-1.20;99.90
49503;DHT22;35409;48.776;9.204;2022-12-18T12:46:59;-1.30;99.90
49503;DHT22;35409;48.776;9.204;2022-12-18T12:49:29;-1.30;99.90
49503;DHT22;35409;48.776;9.204;2022-12-18T12:52:10;-1.30;99.90
49503;DHT22;35409;48.776;9.204;2022-12-18T12:54:37;-1.30;99.90
49503;DHT22;35409;48.776;9.204;2022-12-18T12:57:23;-1.30;99.90
49503;DHT22;35409;48.776;9.204;2022-12-18T13:05:21;-1.20;99.90
49503;DHT22;35409;48.776;9.204;2022-12-18T13:07:55;-1.20;99.90
49503;DHT22;35409;48.776;9.204;2022-12-18T13:10:26;-1.30;99.90
49503;DHT22;35409;48.776;9.204;2022-12-18T13:13:06;-1.30;99.90
49503;DHT22;35409;48.776;9.204;2022-12-18T13:20:39;-1.30;99.90
49503;DHT22;35409;48.776;9.204;2022-12-18T13:31:57;-1.10;99.90
49503;DHT22;35409;48.776;9.204;2022-12-18T13:34:25;-1.00;99.90
49503;DHT22;35409;48.776;9.204;2022-12-18T13:36:53;-0.90;99.90
49503;DHT22;35409;48.776;9.204;2022-12-18T13:44:56;-0.80;99.90
49503;DHT22;35409;48.776;9.204;2022-12-18T13:47:48;-0.80;99.90
49503;DHT22;35409;48.776;9.204;2022-12-18T13:50:23;-0.80;99.90
49503;DHT22;35409;48.776;9.204;2022-12-18T13:52:50;-0.90;99.90
49503;DHT22;35409;48.776;9.204;2022-12-18T13:55:19;-0.90;99.90
49503;DHT22;35409;48.776;9.204;2022-12-18T13:57:45;-1.00;99.90
49503;DHT22;35409;48.776;9.204;2022-12-18T14:00:40;-1.00;99.90
49503;DHT22;35409;48.776;9.204;2022-12-18T14:03:24;-1.00;99.90
49503;DHT22;35409;48.776;9.204;2022-12-18T14:05:58;-1.10;99.90
49503;DHT22;35409;48.776;9.204;2022-12-18T14:08:30;-1.10;99.90
49503;DHT22;35409;48.776;9.204;2022-12-18T14:10:57;-1.20;99.90
49503;DHT22;35409;48.776;9.204;2022-12-18T14:13:28;-1.20;99.90
49503;DHT22;35409;48.776;9.204;2022-12-18T14:15:55;-1.30;99.90
49503;DHT22;35409;48.776;9.204;2022-12-18T14:18:23;-1.30;99.90
49503;DHT22;35409;48.776;9.204;2022-12-18T14:20:51;-1.40;99.90
49503;DHT22;35409;48.776;9.204;2022-12-18T14:23:41;-1.50;99.90
49503;DHT22;35409;48.776;9.204;2022-12-18T14:26:27;-1.60;99.90
49503;DHT22;35409;48.776;9.204;2022-12-18T14:28:59;-1.70;99.90
49503;DHT22;35409;48.776;9.204;2022-12-18T14:31:28;-1.80;99.90
49503;DHT22;35409;48.776;9.204;2022-12-18T14:33:54;-1.90;99.90
49503;DHT22;35409;48.776;9.204;2022-12-18T14:36:26;-1.90;99.90
49503;DHT22;35409;48.776;9.204;2022-12-18T14:39:00;-2.00;99.90
49503;DHT22;35409;48.776;9.204;2022-12-18T14:41:26;-2.10;99.90
49503;DHT22;35409;48.776;9.204;2022-12-18T14:43:54;-2.20;99.90
49503;DHT22;35409;48.776;9.204;2022-12-18T14:48:56;-2.30;99.90
49503;DHT22;35409;48.776;9.204;2022-12-18T14:51:25;-2.40;99.90
49503;DHT22;35409;48.776;9.204;2022-12-18T14:53:57;-2.50;99.90
49503;DHT22;35409;48.776;9.204;2022-12-18T14:58:54;-2.70;99.90
49503;DHT22;35409;48.776;9.204;2022-12-18T15:03:52;-2.90;99.90
49503;DHT22;35409;48.776;9.204;2022-12-18T15:06:26;-3.00;99.90
49503;DHT22;35409;48.776;9.204;2022-12-18T15:08:52;-3.10;99.90
49503;DHT22;35409;48.776;9.204;2022-12-18T15:11:45;-3.20;99.90
49503;DHT22;35409;48.776;9.204;2022-12-18T15:16:56;-3.30;99.90
49503;DHT22;35409;48.776;9.204;2022-12-18T15:21:59;-3.50;99.90
49503;DHT22;35409;48.776;9.204;2022-12-18T15:24:29;-3.60;99.90
49503;DHT22;35409;48.776;9.204;2022-12-18T15:26:55;-3.60;99.90
49503;DHT22;35409;48.776;9.204;2022-12-18T15:29:22;-3.70;99.90
49503;DHT22;35409;48.776;9.204;2022-12-18T15:32:02;-3.70;99.90
49503;DHT22;35409;48.776;9.204;2022-12-18T15:34:29;-3.70;99.90
49503;DHT22;35409;48.776;9.204;2022-12-18T15:36:55;-3.80;99.90
49503;DHT22;35409;48.776;9.204;2022-12-18T15:39:20;-3.90;99.90
49503;DHT22;35409;48.776;9.204;2022-12-18T15:41:46;-3.90;99.90
49503;DHT22;35409;48.776;9.204;2022-12-18T15:44:31;-4.00;99.90
49503;DHT22;35409;48.776;9.204;2022-12-18T15:46:58;-4.00;99.90
49503;DHT22;35409;48.776;9.204;2022-12-18T15:49:23;-4.10;99.90
49503;DHT22;35409;48.776;9.204;2022-12-18T15:51:58;-4.10;99.90
49503;DHT22;35409;48.776;9.204;2022-12-18T15:54:24;-4.10;99.90
49503;DHT22;35409;48.776;9.204;2022-12-18T15:57:10;-4.10;99.90
49503;DHT22;35409;48.776;9.204;2022-12-18T15:59:54;-4.10;99.90
49503;DHT22;35409;48.776;9.204;2022-12-18T16:02:23;-4.10;99.90
49503;DHT22;35409;48.776;9.204;2022-12-18T16:04:50;-4.20;99.90
49503;DHT22;35409;48.776;9.204;2022-12-18T16:07:16;-4.20;99.90
49503;DHT22;35409;48.776;9.204;2022-12-18T16:09:42;-4.30;99.90
49503;DHT22;35409;48.776;9.204;2022-12-18T16:12:18;-4.30;99.90
49503;DHT22;35409;48.776;9.204;2022-12-18T16:14:45;-4.30;99.90
49503;DHT22;35409;48.776;9.204;2022-12-18T16:17:12;-4.30;99.90
49503;DHT22;35409;48.776;9.204;2022-12-18T16:19:38;-4.30;99.90
49503;DHT22;35409;48.776;9.204;2022-12-18T16:22:04;-4.40;99.90
49503;DHT22;35409;48.776;9.204;2022-12-18T16:24:31;-4.50;99.90
49503;DHT22;35409;48.776;9.204;2022-12-18T16:26:59;-4.60;99.90
49503;DHT22;35409;48.776;9.204;2022-12-18T16:29:27;-4.60;99.90
49503;DHT22;35409;48.776;9.204;2022-12-18T16:32:00;-4.60;99.90
49503;DHT22;35409;48.776;9.204;2022-12-18T16:34:28;-4.60;99.90
49503;DHT22;35409;48.776;9.204;2022-12-18T16:36:59;-4.60;99.90
49503;DHT22;35409;48.776;9.204;2022-12-18T16:39:25;-4.50;99.90
49503;DHT22;35409;48.776;9.204;2022-12-18T16:41:51;-4.50;99.90
49503;DHT22;35409;48.776;9.204;2022-12-18T16:44:17;-4.50;99.90
49503;DHT22;35409;48.776;9.204;2022-12-18T16:46:43;-4.50;99.90
49503;DHT22;35409;48.776;9.204;2022-12-18T16:49:11;-4.50;99.90
49503;DHT22;35409;48.776;9.204;2022-12-18T16:51:37;-4.50;99.90
49503;DHT22;35409;48.776;9.204;2022-12-18T16:54:03;-4.50;99.90
49503;DHT22;35409;48.776;9.204;2022-12-18T16:56:29;-4.50;99.90
49503;DHT22;35409;48.776;9.204;2022-12-18T16:58:57;-4.50;99.90
49503;DHT22;35409;48.776;9.204;2022-12-18T17:01:23;-4.50;99.90
49503;DHT22;35409;48.776;9.204;2022-12-18T17:04:00;-4.60;99.90
49503;DHT22;35409;48.776;9.204;2022-12-18T17:06:28;-4.60;99.90
49503;DHT22;35409;48.776;9.204;2022-12-18T17:08:59;-4.60;99.90
49503;DHT22;35409;48.776;9.204;2022-12-18T17:11:26;-4.60;99.90
49503;DHT22;35409;48.776;9.204;2022-12-18T17:13:52;-4.60;99.90
49503;DHT22;35409;48.776;9.204;2022-12-18T17:16:19;-4.70;99.90
49503;DHT22;35409;48.776;9.204;2022-12-18T17:18:45;-4.60;99.90
49503;DHT22;35409;48.776;9.204;2022-12-18T17:21:11;-4.50;99.90
49503;DHT22;35409;48.776;9.204;2022-12-18T17:23:42;-4.50;99.90
49503;DHT22;35409;48.776;9.204;2022-12-18T17:26:09;-4.40;99.90
49503;DHT22;35409;48.776;9.204;2022-12-18T17:28:36;-4.40;99.90
49503;DHT22;35409;48.776;9.204;2022-12-18T17:31:13;-4.30;99.90
49503;DHT22;35409;48.776;9.204;2022-12-18T17:33:41;-4.20;99.90
49503;DHT22;35409;48.776;9.204;2022-12-18T17:36:07;-4.20;99.90
49503;DHT22;35409;48.776;9.204;2022-12-18T17:38:33;-4.20;99.90
49503;DHT22;35409;48.776;9.204;2022-12-18T17:41:06;-4.10;99.90
49503;DHT22;35409;48.776;9.204;2022-12-18T17:43:33;-4.10;99.90
49503;DHT22;35409;48.776;9.204;2022-12-18T17:46:06;-4.10;99.90
49503;DHT22;35409;48.776;9.204;2022-12-18T17:48:32;-4.10;99.90
49503;DHT22;35409;48.776;9.204;2022-12-18T17:51:02;-4.00;99.90
49503;DHT22;35409;48.776;9.204;2022-12-18T17:53:29;-4.00;99.90
49503;DHT22;35409;48.776;9.204;2022-12-18T17:55:55;-3.90;99.90
49503;DHT22;35409;48.776;9.204;2022-12-18T17:58:21;-3.90;99.90
49503;DHT22;35409;48.776;9.204;2022-12-18T18:00:47;-3.80;99.90
49503;DHT22;35409;48.776;9.204;2022-12-18T18:03:13;-3.80;99.90
49503;DHT22;35409;48.776;9.204;2022-12-18T18:05:38;-3.80;99.90
49503;DHT22;35409;48.776;9.204;2022-12-18T18:08:05;-3.80;99.90
49503;DHT22;35409;48.776;9.204;2022-12-18T18:10:31;-3.70;99.90
49503;DHT22;35409;48.776;9.204;2022-12-18T18:12:58;-3.80;99.90
49503;DHT22;35409;48.776;9.204;2022-12-18T18:15:42;-3.80;99.90
49503;DHT22;35409;48.776;9.204;2022-12-18T18:18:07;-3.80;99.90
49503;DHT22;35409;48.776;9.204;2022-12-18T18:20:37;-3.90;99.90
49503;DHT22;35409;48.776;9.204;2022-12-18T18:23:03;-3.90;99.90
49503;DHT22;35409;48.776;9.204;2022-12-18T18:25:28;-3.80;99.90
49503;DHT22;35409;48.776;9.204;2022-12-18T18:27:54;-3.80;99.90
49503;DHT22;35409;48.776;9.204;2022-12-18T18:30:20;-3.90;99.90
49503;DHT22;35409;48.776;9.204;2022-12-18T18:32:46;-3.90;99.90
49503;DHT22;35409;48.776;9.204;2022-12-18T18:35:12;-3.80;99.90
49503;DHT22;35409;48.776;9.204;2022-12-18T18:37:38;-3.90;99.90
49503;DHT22;35409;48.776;9.204;2022-12-18T18:40:04;-3.90;99.90
49503;DHT22;35409;48.776;9.204;2022-12-18T18:42:30;-4.00;99.90
49503;DHT22;35409;48.776;9.204;2022-12-18T18:44:56;-4.00;99.90
49503;DHT22;35409;48.776;9.204;2022-12-18T18:47:21;-4.00;99.90
49503;DHT22;35409;48.776;9.204;2022-12-18T18:49:47;-3.90;99.90
49503;DHT22;35409;48.776;9.204;2022-12-18T18:52:12;-3.90;99.90
49503;DHT22;35409;48.776;9.204;2022-12-18T18:54:38;-3.90;99.90
49503;DHT22;35409;48.776;9.204;2022-12-18T18:57:03;-3.90;99.90
49503;DHT22;35409;48.776;9.204;2022-12-18T18:59:29;-3.80;99.90
49503;DHT22;35409;48.776;9.204;2022-12-18T19:01:55;-3.90;99.90
49503;DHT22;35409;48.776;9.204;2022-12-18T19:04:20;-3.90;99.90
49503;DHT22;35409;48.776;9.204;2022-12-18T19:06:46;-3.90;99.90
49503;DHT22;35409;48.776;9.204;2022-12-18T19:09:13;-3.80;99.90
49503;DHT22;35409;48.776;9.204;2022-12-18T19:11:38;-3.80;99.90
49503;DHT22;35409;48.776;9.204;2022-12-18T19:14:23;-3.80;99.90
49503;DHT22;35409;48.776;9.204;2022-12-18T19:16:48;-3.70;99.90
49503;DHT22;35409;48.776;9.204;2022-12-18T19:19:14;-3.80;99.90
49503;DHT22;35409;48.776;9.204;2022-12-18T19:21:44;-3.80;99.90
49503;DHT22;35409;48.776;9.204;2022-12-18T19:24:10;-3.80;99.90
49503;DHT22;35409;48.776;9.204;2022-12-18T19:26:36;-3.80;99.90
49503;DHT22;35409;48.776;9.204;2022-12-18T19:29:04;-3.80;99.90
49503;DHT22;35409;48.776;9.204;2022-12-18T19:31:30;-3.80;99.90
49503;DHT22;35409;48.776;9.204;2022-12-18T19:33:55;-3.80;99.90
49503;DHT22;35409;48.776;9.204;2022-12-18T19:36:24;-3.70;99.90
49503;DHT22;35409;48.776;9.204;2022-12-18T19:38:51;-3.70;99.90
49503;DHT22;35409;48.776;9.204;2022-12-18T19:41:18;-3.70;99.90
49503;DHT22;35409;48.776;9.204;2022-12-18T19:43:45;-3.70;99.90
49503;DHT22;35409;48.776;9.204;2022-12-18T19:46:13;-3.80;99.90
49503;DHT22;35409;48.776;9.204;2022-12-18T19:48:39;-3.80;99.90
49503;DHT22;35409;48.776;9.204;2022-12-18T19:51:12;-3.80;99.90
49503;DHT22;35409;48.776;9.204;2022-12-18T19:53:38;-3.80;99.90
49503;DHT22;35409;48.776;9.204;2022-12-18T19:56:06;-3.70;99.90
49503;DHT22;35409;48.776;9.204;2022-12-18T19:58:32;-3.60;99.90
49503;DHT22;35409;48.776;9.204;2022-12-18T20:00:57;-3.50;99.90
49503;DHT22;35409;48.776;9.204;2022-12-18T20:03:23;-3.40;99.90
49503;DHT22;35409;48.776;9.204;2022-12-18T20:05:48;-3.40;99.90
49503;DHT22;35409;48.776;9.204;2022-12-18T20:08:14;-3.50;99.90
49503;DHT22;35409;48.776;9.204;2022-12-18T20:10:40;-3.40;99.90
49503;DHT22;35409;48.776;9.204;2022-12-18T20:13:05;-3.50;99.90
49503;DHT22;35409;48.776;9.204;2022-12-18T20:15:31;-3.50;99.90
49503;DHT22;35409;48.776;9.204;2022-12-18T20:17:57;-3.40;99.90
49503;DHT22;35409;48.776;9.204;2022-12-18T20:20:22;-3.40;99.90
49503;DHT22;35409;48.776;9.204;2022-12-18T20:22:48;-3.30;99.90
49503;DHT22;35409;48.776;9.204;2022-12-18T20:25:13;-3.40;99.90
49503;DHT22;35409;48.776;9.204;2022-12-18T20:27:39;-3.40;99.90
49503;DHT22;35409;48.776;9.204;2022-12-18T20:30:05;-3.40;99.90
49503;DHT22;35409;48.776;9.204;2022-12-18T20:32:31;-3.50;99.90
49503;DHT22;35409;48.776;9.204;2022-12-18T20:34:56;-3.50;99.90
49503;DHT22;35409;48.776;9.204;2022-12-18T20:37:22;-3.60;99.90
49503;DHT22;35409;48.776;9.204;2022-12-18T20:39:47;-3.70;99.90
49503;DHT22;35409;48.776;9.204;2022-12-18T20:42:13;-3.70;99.90
49503;DHT22;35409;48.776;9.204;2022-12-18T20:44:39;-3.70;99.90
49503;DHT22;35409;48.776;9.204;2022-12-18T20:47:04;-3.60;99.90
49503;DHT22;35409;48.776;9.204;2022-12-18T20:49:30;-3.70;99.90
49503;DHT22;35409;48.776;9.204;2022-12-18T20:51:56;-3.70;99.90
49503;DHT22;35409;48.776;9.204;2022-12-18T20:54:24;-3.70;99.90
49503;DHT22;35409;48.776;9.204;2022-12-18T20:56:51;-3.80;99.90
49503;DHT22;35409;48.776;9.204;2022-12-18T20:59:17;-3.80;99.90
49503;DHT22;35409;48.776;9.204;2022-12-18T21:01:44;-3.70;99.90
49503;DHT22;35409;48.776;9.204;2022-12-18T21:04:11;-3.70;99.90
49503;DHT22;35409;48.776;9.204;2022-12-18T21:06:37;-3.70;99.90
49503;DHT22;35409;48.776;9.204;2022-12-18T21:09:02;-3.70;99.90
49503;DHT22;35409;48.776;9.204;2022-12-18T21:11:30;-3.60;99.90